sensor_id;sensor_type;location;lat;lon;timestamp;temperature;humidity
56172;DHT22;42052;41.634;-0.946;2022-10-31T00:00:59;24.60;53.70
56172;DHT22;42052;41.634;-0.946;2022-10-31T00:03:25;24.60;53.70
56172;DHT22;42052;41.634;-0.946;2022-10-31T00:05:52;24.60;53.70
56172;DHT22;42052;41.634;-0.946;2022-10-31T00:08:18;24.60;53.70
56172;DHT22;42052;41.634;-0.946;2022-10-31T00:10:45;24.60;53.70
56172;DHT22;42052;41.634;-0.946;2022-10-31T00:13:12;24.60;53.70
56172;DHT22;42052;41.634;-0.946;2022-10-31T00:15:39;24.60;53.80
56172;DHT22;42052;41.634;-0.946;2022-10-31T00:18:07;24.60;53.70
56172;DHT22;42052;41.634;-0.946;2022-10-31T00:20:33;24.60;53.70
56172;DHT22;42052;41.634;-0.946;2022-10-31T00:23:00;24.60;53.70
56172;DHT22;42052;41.634;-0.946;2022-10-31T00:25:28;24.60;53.70
56172;DHT22;42052;41.634;-0.946;2022-10-31T00:27:54;24.60;53.70
56172;DHT22;42052;41.634;-0.946;2022-10-31T00:30:20;24.50;53.70
56172;DHT22;42052;41.634;-0.946;2022-10-31T00:32:46;24.50;53.60
56172;DHT22;42052;41.634;-0.946;2022-10-31T00:35:12;24.50;53.70
56172;DHT22;42052;41.634;-0.946;2022-10-31T00:37:38;24.60;53.70
56172;DHT22;42052;41.634;-0.946;2022-10-31T00:40:04;24.60;53.70
56172;DHT22;42052;41.634;-0.946;2022-10-31T00:42:30;24.50;53.60
56172;DHT22;42052;41.634;-0.946;2022-10-31T00:44:56;24.60;53.60
56172;DHT22;42052;41.634;-0.946;2022-10-31T00:47:22;24.60;53.70
56172;DHT22;42052;41.634;-0.946;2022-10-31T00:49:47;24.60;53.60
56172;DHT22;42052;41.634;-0.946;2022-10-31T00:52:13;24.60;53.60
56172;DHT22;42052;41.634;-0.946;2022-10-31T00:54:39;24.60;53.60
56172;DHT22;42052;41.634;-0.946;2022-10-31T00:57:05;24.60;54.40
56172;DHT22;42052;41.634;-0.946;2022-10-31T00:59:31;24.50;53.50
56172;DHT22;42052;41.634;-0.946;2022-10-31T01:01:57;24.60;53.60
56172;DHT22;42052;41.634;-0.946;2022-10-31T01:04:23;24.60;53.60
56172;DHT22;42052;41.634;-0.946;2022-10-31T01:06:49;24.60;53.50
56172;DHT22;42052;41.634;-0.946;2022-10-31T01:09:15;24.60;53.40
56172;DHT22;42052;41.634;-0.946;2022-10-31T01:11:40;24.70;53.30
56172;DHT22;42052;41.634;-0.946;2022-10-31T01:14:08;24.70;53.50
56172;DHT22;42052;41.634;-0.946;2022-10-31T01:16:34;24.70;53.10
56172;DHT22;42052;41.634;-0.946;2022-10-31T01:19:00;24.60;53.10
56172;DHT22;42052;41.634;-0.946;2022-10-31T01:21:28;24.70;53.20
56172;DHT22;42052;41.634;-0.946;2022-10-31T01:23:55;24.60;53.10
56172;DHT22;42052;41.634;-0.946;2022-10-31T01:26:26;24.60;53.20
56172;DHT22;42052;41.634;-0.946;2022-10-31T01:28:58;24.60;53.20
56172;DHT22;42052;41.634;-0.946;2022-10-31T01:31:30;24.60;53.30
56172;DHT22;42052;41.634;-0.946;2022-10-31T01:33:56;24.60;53.30
56172;DHT22;42052;41.634;-0.946;2022-10-31T01:36:24;24.60;53.20
56172;DHT22;42052;41.634;-0.946;2022-10-31T01:38:52;24.60;53.20
56172;DHT22;42052;41.634;-0.946;2022-10-31T01:41:21;24.60;53.20
56172;DHT22;42052;41.634;-0.946;2022-10-31T01:43:55;24.60;53.30
56172;DHT22;42052;41.634;-0.946;2022-10-31T01:46:39;24.60;53.20
56172;DHT22;42052;41.634;-0.946;2022-10-31T01:49:12;24.60;53.20
56172;DHT22;42052;41.634;-0.946;2022-10-31T01:52:01;24.60;53.30
56172;DHT22;42052;41.634;-0.946;2022-10-31T01:54:29;24.60;53.20
56172;DHT22;42052;41.634;-0.946;2022-10-31T01:56:59;24.60;53.10
56172;DHT22;42052;41.634;-0.946;2022-10-31T01:59:30;24.60;53.20
56172;DHT22;42052;41.634;-0.946;2022-10-31T02:01:57;24.60;53.20
56172;DHT22;42052;41.634;-0.946;2022-10-31T02:04:25;24.60;53.20
56172;DHT22;42052;41.634;-0.946;2022-10-31T02:07:00;24.60;53.20
56172;DHT22;42052;41.634;-0.946;2022-10-31T02:09:29;24.60;53.10
56172;DHT22;42052;41.634;-0.946;2022-10-31T02:11:58;24.60;53.20
56172;DHT22;42052;41.634;-0.946;2022-10-31T02:14:27;24.60;53.10
56172;DHT22;42052;41.634;-0.946;2022-10-31T02:16:54;24.60;53.10
56172;DHT22;42052;41.634;-0.946;2022-10-31T02:22:23;24.60;53.10
56172;DHT22;42052;41.634;-0.946;2022-10-31T02:28:15;24.50;53.10
56172;DHT22;42052;41.634;-0.946;2022-10-31T02:34:22;24.60;53.10
56172;DHT22;42052;41.634;-0.946;2022-10-31T02:37:06;24.60;53.10
56172;DHT22;42052;41.634;-0.946;2022-10-31T02:42:33;24.60;53.00
56172;DHT22;42052;41.634;-0.946;2022-10-31T02:47:38;24.50;53.00
56172;DHT22;42052;41.634;-0.946;2022-10-31T02:50:13;24.60;53.20
56172;DHT22;42052;41.634;-0.946;2022-10-31T02:52:39;24.60;53.20
56172;DHT22;42052;41.634;-0.946;2022-10-31T02:55:41;24.60;53.10
56172;DHT22;42052;41.634;-0.946;2022-10-31T03:00:30;24.50;53.00
56172;DHT22;42052;41.634;-0.946;2022-10-31T03:03:44;24.50;53.00
56172;DHT22;42052;41.634;-0.946;2022-10-31T03:06:27;24.60;53.00
56172;DHT22;42052;41.634;-0.946;2022-10-31T03:09:23;24.60;53.80
56172;DHT22;42052;41.634;-0.946;2022-10-31T03:12:10;24.60;53.00
56172;DHT22;42052;41.634;-0.946;2022-10-31T03:15:04;24.60;53.10
56172;DHT22;42052;41.634;-0.946;2022-10-31T03:17:37;24.60;53.10
56172;DHT22;42052;41.634;-0.946;2022-10-31T03:20:09;24.60;53.10
56172;DHT22;42052;41.634;-0.946;2022-10-31T03:22:37;24.50;52.90
56172;DHT22;42052;41.634;-0.946;2022-10-31T03:25:06;24.60;53.00
56172;DHT22;42052;41.634;-0.946;2022-10-31T03:27:36;24.60;53.10
56172;DHT22;42052;41.634;-0.946;2022-10-31T03:30:05;24.60;52.90
56172;DHT22;42052;41.634;-0.946;2022-10-31T03:32:38;24.60;52.90
56172;DHT22;42052;41.634;-0.946;2022-10-31T03:35:08;24.60;52.80
56172;DHT22;42052;41.634;-0.946;2022-10-31T03:37:35;24.60;52.80
56172;DHT22;42052;41.634;-0.946;2022-10-31T03:40:03;24.70;52.80
56172;DHT22;42052;41.634;-0.946;2022-10-31T03:42:34;24.60;52.60
56172;DHT22;42052;41.634;-0.946;2022-10-31T03:45:12;24.70;52.60
56172;DHT22;42052;41.634;-0.946;2022-10-31T03:47:41;24.70;52.50
56172;DHT22;42052;41.634;-0.946;2022-10-31T03:50:09;24.70;52.50
56172;DHT22;42052;41.634;-0.946;2022-10-31T03:52:49;24.70;52.40
56172;DHT22;42052;41.634;-0.946;2022-10-31T03:58:21;24.70;52.30
56172;DHT22;42052;41.634;-0.946;2022-10-31T04:00:51;24.80;52.30
56172;DHT22;42052;41.634;-0.946;2022-10-31T04:05:49;24.80;52.20
56172;DHT22;42052;41.634;-0.946;2022-10-31T04:08:21;24.90;52.20
56172;DHT22;42052;41.634;-0.946;2022-10-31T04:10:49;24.90;52.20
56172;DHT22;42052;41.634;-0.946;2022-10-31T04:13:24;24.90;52.20
56172;DHT22;42052;41.634;-0.946;2022-10-31T04:15:52;24.80;52.10
56172;DHT22;42052;41.634;-0.946;2022-10-31T04:18:21;24.90;52.10
56172;DHT22;42052;41.634;-0.946;2022-10-31T04:20:47;24.90;52.10
56172;DHT22;42052;41.634;-0.946;2022-10-31T04:23:20;24.90;52.10
56172;DHT22;42052;41.634;-0.946;2022-10-31T04:25:48;24.90;52.10
56172;DHT22;42052;41.634;-0.946;2022-10-31T04:28:14;24.90;52.00
56172;DHT22;42052;41.634;-0.946;2022-10-31T04:30:40;24.90;52.00
56172;DHT22;42052;41.634;-0.946;2022-10-31T04:33:06;24.90;51.90
56172;DHT22;42052;41.634;-0.946;2022-10-31T04:35:31;24.90;51.90
56172;DHT22;42052;41.634;-0.946;2022-10-31T04:37:57;24.90;51.90
56172;DHT22;42052;41.634;-0.946;2022-10-31T04:40:23;24.90;51.90
56172;DHT22;42052;41.634;-0.946;2022-10-31T04:42:49;24.90;51.80
56172;DHT22;42052;41.634;-0.946;2022-10-31T04:45:15;24.90;51.80
56172;DHT22;42052;41.634;-0.946;2022-10-31T04:47:41;24.90;51.90
56172;DHT22;42052;41.634;-0.946;2022-10-31T04:50:07;24.90;51.90
56172;DHT22;42052;41.634;-0.946;2022-10-31T04:52:41;24.90;52.00
56172;DHT22;42052;41.634;-0.946;2022-10-31T04:55:08;24.90;52.10
56172;DHT22;42052;41.634;-0.946;2022-10-31T04:57:46;24.90;52.10
56172;DHT22;42052;41.634;-0.946;2022-10-31T05:00:14;24.90;52.10
56172;DHT22;42052;41.634;-0.946;2022-10-31T05:02:48;24.90;52.10
56172;DHT22;42052;41.634;-0.946;2022-10-31T05:05:16;24.90;52.20
56172;DHT22;42052;41.634;-0.946;2022-10-31T05:07:43;24.90;52.20
56172;DHT22;42052;41.634;-0.946;2022-10-31T05:10:11;24.80;52.20
56172;DHT22;42052;41.634;-0.946;2022-10-31T05:12:37;24.80;52.30
56172;DHT22;42052;41.634;-0.946;2022-10-31T05:15:04;24.80;52.40
56172;DHT22;42052;41.634;-0.946;2022-10-31T05:17:31;24.70;52.40
56172;DHT22;42052;41.634;-0.946;2022-10-31T05:19:56;24.80;52.50
56172;DHT22;42052;41.634;-0.946;2022-10-31T05:22:23;24.70;52.40
56172;DHT22;42052;41.634;-0.946;2022-10-31T05:24:48;24.70;52.40
56172;DHT22;42052;41.634;-0.946;2022-10-31T05:27:14;24.70;52.40
56172;DHT22;42052;41.634;-0.946;2022-10-31T05:29:40;24.70;52.50
56172;DHT22;42052;41.634;-0.946;2022-10-31T05:32:06;24.70;52.50
56172;DHT22;42052;41.634;-0.946;2022-10-31T05:34:32;24.70;52.50
56172;DHT22;42052;41.634;-0.946;2022-10-31T05:36:57;24.70;52.60
56172;DHT22;42052;41.634;-0.946;2022-10-31T05:39:23;24.70;52.60
56172;DHT22;42052;41.634;-0.946;2022-10-31T05:41:49;24.70;52.60
56172;DHT22;42052;41.634;-0.946;2022-10-31T05:44:15;24.70;52.70
56172;DHT22;42052;41.634;-0.946;2022-10-31T05:46:40;24.70;52.70
56172;DHT22;42052;41.634;-0.946;2022-10-31T05:49:06;24.70;52.70
56172;DHT22;42052;41.634;-0.946;2022-10-31T05:51:32;24.70;52.60
56172;DHT22;42052;41.634;-0.946;2022-10-31T05:53:58;24.70;52.80
56172;DHT22;42052;41.634;-0.946;2022-10-31T05:56:24;24.60;52.80
56172;DHT22;42052;41.634;-0.946;2022-10-31T05:58:50;24.70;52.80
56172;DHT22;42052;41.634;-0.946;2022-10-31T06:01:15;24.70;52.80
56172;DHT22;42052;41.634;-0.946;2022-10-31T06:03:41;24.70;52.80
56172;DHT22;42052;41.634;-0.946;2022-10-31T06:06:07;24.70;52.80
56172;DHT22;42052;41.634;-0.946;2022-10-31T06:08:33;24.60;52.80
56172;DHT22;42052;41.634;-0.946;2022-10-31T06:10:59;24.60;52.80
56172;DHT22;42052;41.634;-0.946;2022-10-31T06:13:25;24.60;52.80
56172;DHT22;42052;41.634;-0.946;2022-10-31T06:15:51;24.60;52.80
56172;DHT22;42052;41.634;-0.946;2022-10-31T06:18:16;24.60;52.90
56172;DHT22;42052;41.634;-0.946;2022-10-31T06:20:42;24.60;52.90
56172;DHT22;42052;41.634;-0.946;2022-10-31T06:23:08;24.60;52.90
56172;DHT22;42052;41.634;-0.946;2022-10-31T06:25:34;24.60;52.90
56172;DHT22;42052;41.634;-0.946;2022-10-31T06:28:00;24.60;52.90
56172;DHT22;42052;41.634;-0.946;2022-10-31T06:30:26;24.60;52.90
56172;DHT22;42052;41.634;-0.946;2022-10-31T06:32:52;24.60;52.80
56172;DHT22;42052;41.634;-0.946;2022-10-31T06:35:18;24.60;52.80
56172;DHT22;42052;41.634;-0.946;2022-10-31T06:37:51;24.60;53.00
56172;DHT22;42052;41.634;-0.946;2022-10-31T06:40:17;24.60;53.20
56172;DHT22;42052;41.634;-0.946;2022-10-31T06:42:43;24.60;53.50
56172;DHT22;42052;41.634;-0.946;2022-10-31T06:45:08;24.70;53.90
56172;DHT22;42052;41.634;-0.946;2022-10-31T06:47:34;24.70;54.80
56172;DHT22;42052;41.634;-0.946;2022-10-31T06:50:00;24.70;55.70
56172;DHT22;42052;41.634;-0.946;2022-10-31T06:52:26;24.70;55.70
56172;DHT22;42052;41.634;-0.946;2022-10-31T06:54:52;24.70;56.00
56172;DHT22;42052;41.634;-0.946;2022-10-31T06:57:18;24.70;56.20
56172;DHT22;42052;41.634;-0.946;2022-10-31T06:59:44;24.70;56.50
56172;DHT22;42052;41.634;-0.946;2022-10-31T07:02:10;24.70;56.60
56172;DHT22;42052;41.634;-0.946;2022-10-31T07:04:36;24.70;57.60
56172;DHT22;42052;41.634;-0.946;2022-10-31T07:07:02;24.70;57.00
56172;DHT22;42052;41.634;-0.946;2022-10-31T07:09:29;24.70;57.00
56172;DHT22;42052;41.634;-0.946;2022-10-31T07:11:55;24.80;57.80
56172;DHT22;42052;41.634;-0.946;2022-10-31T07:14:20;24.80;57.00
56172;DHT22;42052;41.634;-0.946;2022-10-31T07:16:50;24.80;57.10
56172;DHT22;42052;41.634;-0.946;2022-10-31T07:19:16;24.80;57.40
56172;DHT22;42052;41.634;-0.946;2022-10-31T07:21:42;24.80;57.30
56172;DHT22;42052;41.634;-0.946;2022-10-31T07:24:08;24.70;57.20
56172;DHT22;42052;41.634;-0.946;2022-10-31T07:26:34;24.80;57.50
56172;DHT22;42052;41.634;-0.946;2022-10-31T07:29:00;24.70;57.60
56172;DHT22;42052;41.634;-0.946;2022-10-31T07:31:26;24.80;57.50
56172;DHT22;42052;41.634;-0.946;2022-10-31T07:33:51;24.70;57.90
56172;DHT22;42052;41.634;-0.946;2022-10-31T07:36:18;24.70;57.90
56172;DHT22;42052;41.634;-0.946;2022-10-31T07:38:43;24.70;57.90
56172;DHT22;42052;41.634;-0.946;2022-10-31T07:41:09;24.70;58.70
56172;DHT22;42052;41.634;-0.946;2022-10-31T07:43:35;24.70;57.80
56172;DHT22;42052;41.634;-0.946;2022-10-31T07:46:01;24.70;58.00
56172;DHT22;42052;41.634;-0.946;2022-10-31T07:48:27;24.70;57.80
56172;DHT22;42052;41.634;-0.946;2022-10-31T07:50:53;24.70;57.90
56172;DHT22;42052;41.634;-0.946;2022-10-31T07:53:20;24.70;58.00
56172;DHT22;42052;41.634;-0.946;2022-10-31T07:55:45;24.70;58.00
56172;DHT22;42052;41.634;-0.946;2022-10-31T07:58:14;24.70;57.80
56172;DHT22;42052;41.634;-0.946;2022-10-31T08:00:42;24.70;58.00
56172;DHT22;42052;41.634;-0.946;2022-10-31T08:03:11;24.70;58.00
56172;DHT22;42052;41.634;-0.946;2022-10-31T08:05:37;24.70;58.00
56172;DHT22;42052;41.634;-0.946;2022-10-31T08:08:04;24.70;57.90
56172;DHT22;42052;41.634;-0.946;2022-10-31T08:10:33;24.70;57.70
56172;DHT22;42052;41.634;-0.946;2022-10-31T08:13:01;24.70;57.90
56172;DHT22;42052;41.634;-0.946;2022-10-31T08:15:27;24.60;57.70
56172;DHT22;42052;41.634;-0.946;2022-10-31T08:17:53;24.70;57.70
56172;DHT22;42052;41.634;-0.946;2022-10-31T08:20:20;24.70;57.80
56172;DHT22;42052;41.634;-0.946;2022-10-31T08:23:03;24.60;57.60
56172;DHT22;42052;41.634;-0.946;2022-10-31T08:25:31;24.60;57.70
56172;DHT22;42052;41.634;-0.946;2022-10-31T08:27:57;24.70;57.30
56172;DHT22;42052;41.634;-0.946;2022-10-31T08:30:28;24.70;57.40
56172;DHT22;42052;41.634;-0.946;2022-10-31T08:33:18;24.70;57.40
56172;DHT22;42052;41.634;-0.946;2022-10-31T08:35:44;24.60;57.30
56172;DHT22;42052;41.634;-0.946;2022-10-31T08:38:11;24.60;57.20
56172;DHT22;42052;41.634;-0.946;2022-10-31T08:40:38;24.60;57.20
56172;DHT22;42052;41.634;-0.946;2022-10-31T08:43:06;24.70;57.20
56172;DHT22;42052;41.634;-0.946;2022-10-31T08:45:34;24.70;57.00
56172;DHT22;42052;41.634;-0.946;2022-10-31T08:48:05;24.70;57.10
56172;DHT22;42052;41.634;-0.946;2022-10-31T08:50:33;24.70;57.20
56172;DHT22;42052;41.634;-0.946;2022-10-31T08:53:25;24.70;57.30
56172;DHT22;42052;41.634;-0.946;2022-10-31T08:55:54;24.70;57.10
56172;DHT22;42052;41.634;-0.946;2022-10-31T08:58:22;24.70;57.10
56172;DHT22;42052;41.634;-0.946;2022-10-31T09:00:50;24.70;57.10
56172;DHT22;42052;41.634;-0.946;2022-10-31T09:03:25;24.70;57.10
56172;DHT22;42052;41.634;-0.946;2022-10-31T09:05:55;24.60;57.10
56172;DHT22;42052;41.634;-0.946;2022-10-31T09:08:21;24.60;57.10
56172;DHT22;42052;41.634;-0.946;2022-10-31T09:10:47;24.60;57.10
56172;DHT22;42052;41.634;-0.946;2022-10-31T09:13:18;24.60;57.10
56172;DHT22;42052;41.634;-0.946;2022-10-31T09:15:46;24.60;57.00
56172;DHT22;42052;41.634;-0.946;2022-10-31T09:18:14;24.60;57.00
56172;DHT22;42052;41.634;-0.946;2022-10-31T09:20:42;24.60;57.00
56172;DHT22;42052;41.634;-0.946;2022-10-31T09:23:13;24.60;56.90
56172;DHT22;42052;41.634;-0.946;2022-10-31T09:25:40;24.60;56.80
56172;DHT22;42052;41.634;-0.946;2022-10-31T09:28:08;24.60;56.80
56172;DHT22;42052;41.634;-0.946;2022-10-31T09:30:35;24.60;56.80
56172;DHT22;42052;41.634;-0.946;2022-10-31T09:33:06;24.60;56.80
56172;DHT22;42052;41.634;-0.946;2022-10-31T09:35:32;24.60;56.80
56172;DHT22;42052;41.634;-0.946;2022-10-31T09:38:04;24.60;56.70
56172;DHT22;42052;41.634;-0.946;2022-10-31T09:40:36;24.60;56.70
56172;DHT22;42052;41.634;-0.946;2022-10-31T09:46:15;24.60;56.50
56172;DHT22;42052;41.634;-0.946;2022-10-31T09:51:20;24.60;56.50
56172;DHT22;42052;41.634;-0.946;2022-10-31T09:53:58;24.60;56.50
56172;DHT22;42052;41.634;-0.946;2022-10-31T09:56:26;24.60;56.40
56172;DHT22;42052;41.634;-0.946;2022-10-31T09:59:02;24.60;56.30
56172;DHT22;42052;41.634;-0.946;2022-10-31T10:01:47;24.60;56.30
56172;DHT22;42052;41.634;-0.946;2022-10-31T10:06:52;24.60;56.10
56172;DHT22;42052;41.634;-0.946;2022-10-31T10:09:24;24.60;56.10
56172;DHT22;42052;41.634;-0.946;2022-10-31T10:12:06;24.60;56.10
56172;DHT22;42052;41.634;-0.946;2022-10-31T10:25:38;24.60;55.90
56172;DHT22;42052;41.634;-0.946;2022-10-31T10:28:27;24.60;56.60
56172;DHT22;42052;41.634;-0.946;2022-10-31T10:31:03;24.60;56.10
56172;DHT22;42052;41.634;-0.946;2022-10-31T10:33:38;24.60;55.80
56172;DHT22;42052;41.634;-0.946;2022-10-31T10:36:20;24.70;55.80
56172;DHT22;42052;41.634;-0.946;2022-10-31T10:39:02;24.60;55.70
56172;DHT22;42052;41.634;-0.946;2022-10-31T10:41:31;24.70;55.70
56172;DHT22;42052;41.634;-0.946;2022-10-31T10:43:57;24.70;55.70
56172;DHT22;42052;41.634;-0.946;2022-10-31T10:46:48;24.70;55.70
56172;DHT22;42052;41.634;-0.946;2022-10-31T10:49:50;24.60;55.60
56172;DHT22;42052;41.634;-0.946;2022-10-31T10:52:29;24.70;55.60
56172;DHT22;42052;41.634;-0.946;2022-10-31T10:55:05;24.60;55.60
56172;DHT22;42052;41.634;-0.946;2022-10-31T11:00:22;24.70;55.60
56172;DHT22;42052;41.634;-0.946;2022-10-31T11:02:48;24.70;55.60
56172;DHT22;42052;41.634;-0.946;2022-10-31T11:08:04;24.70;55.50
56172;DHT22;42052;41.634;-0.946;2022-10-31T11:10:30;24.70;55.50
56172;DHT22;42052;41.634;-0.946;2022-10-31T11:13:21;24.70;55.50
56172;DHT22;42052;41.634;-0.946;2022-10-31T11:16:12;24.70;55.50
56172;DHT22;42052;41.634;-0.946;2022-10-31T11:18:45;24.70;55.50
56172;DHT22;42052;41.634;-0.946;2022-10-31T11:21:41;24.70;55.50
56172;DHT22;42052;41.634;-0.946;2022-10-31T11:26:37;24.60;55.40
56172;DHT22;42052;41.634;-0.946;2022-10-31T11:29:04;24.60;55.40
56172;DHT22;42052;41.634;-0.946;2022-10-31T11:31:34;24.60;55.40
56172;DHT22;42052;41.634;-0.946;2022-10-31T11:34:03;24.60;55.50
56172;DHT22;42052;41.634;-0.946;2022-10-31T11:36:37;24.60;55.40
56172;DHT22;42052;41.634;-0.946;2022-10-31T11:39:05;24.60;55.40
56172;DHT22;42052;41.634;-0.946;2022-10-31T11:41:38;24.60;55.50
56172;DHT22;42052;41.634;-0.946;2022-10-31T11:44:20;24.60;55.30
56172;DHT22;42052;41.634;-0.946;2022-10-31T11:46:53;24.70;55.50
56172;DHT22;42052;41.634;-0.946;2022-10-31T11:51:53;24.70;55.30
56172;DHT22;42052;41.634;-0.946;2022-10-31T11:54:59;24.60;55.20
56172;DHT22;42052;41.634;-0.946;2022-10-31T11:57:42;24.60;55.30
56172;DHT22;42052;41.634;-0.946;2022-10-31T12:00:33;24.70;55.20
56172;DHT22;42052;41.634;-0.946;2022-10-31T12:06:09;24.70;55.20
56172;DHT22;42052;41.634;-0.946;2022-10-31T12:08:39;24.70;55.20
56172;DHT22;42052;41.634;-0.946;2022-10-31T12:11:16;24.60;55.30
56172;DHT22;42052;41.634;-0.946;2022-10-31T12:16:46;24.70;55.20
56172;DHT22;42052;41.634;-0.946;2022-10-31T12:30:20;24.60;55.10
56172;DHT22;42052;41.634;-0.946;2022-10-31T12:41:36;24.60;55.00
56172;DHT22;42052;41.634;-0.946;2022-10-31T12:57:22;24.60;55.00
56172;DHT22;42052;41.634;-0.946;2022-10-31T12:59:56;24.60;55.00
56172;DHT22;42052;41.634;-0.946;2022-10-31T13:08:04;24.60;54.90
56172;DHT22;42052;41.634;-0.946;2022-10-31T13:10:59;24.60;54.90
56172;DHT22;42052;41.634;-0.946;2022-10-31T13:13:35;24.60;54.90
56172;DHT22;42052;41.634;-0.946;2022-10-31T13:16:25;24.60;54.90
56172;DHT22;42052;41.634;-0.946;2022-10-31T13:21:35;24.60;54.90
56172;DHT22;42052;41.634;-0.946;2022-10-31T13:24:05;24.60;54.90
56172;DHT22;42052;41.634;-0.946;2022-10-31T13:26:54;24.60;54.90
56172;DHT22;42052;41.634;-0.946;2022-10-31T13:29:34;24.60;54.80
56172;DHT22;42052;41.634;-0.946;2022-10-31T13:32:05;24.60;54.90
56172;DHT22;42052;41.634;-0.946;2022-10-31T13:34:35;24.60;54.90
56172;DHT22;42052;41.634;-0.946;2022-10-31T13:44:39;24.60;54.80
56172;DHT22;42052;41.634;-0.946;2022-10-31T13:47:25;24.60;54.80
56172;DHT22;42052;41.634;-0.946;2022-10-31T13:49:51;24.60;54.80
56172;DHT22;42052;41.634;-0.946;2022-10-31T13:52:26;24.60;55.50
56172;DHT22;42052;41.634;-0.946;2022-10-31T13:54:53;24.60;54.80
56172;DHT22;42052;41.634;-0.946;2022-10-31T14:00:07;24.60;54.80
56172;DHT22;42052;41.634;-0.946;2022-10-31T14:02:56;24.60;54.80
56172;DHT22;42052;41.634;-0.946;2022-10-31T14:05:33;24.60;54.70
56172;DHT22;42052;41.634;-0.946;2022-10-31T14:08:02;24.60;54.80
56172;DHT22;42052;41.634;-0.946;2022-10-31T14:10:38;24.60;54.70
56172;DHT22;42052;41.634;-0.946;2022-10-31T14:13:14;24.60;54.70
56172;DHT22;42052;41.634;-0.946;2022-10-31T14:16:03;24.60;54.70
56172;DHT22;42052;41.634;-0.946;2022-10-31T14:18:41;24.60;54.70
56172;DHT22;42052;41.634;-0.946;2022-10-31T14:23:52;24.60;54.70
56172;DHT22;42052;41.634;-0.946;2022-10-31T14:29:20;24.60;54.70
56172;DHT22;42052;41.634;-0.946;2022-10-31T14:31:56;24.70;54.70
56172;DHT22;42052;41.634;-0.946;2022-10-31T14:45:02;24.60;54.60
56172;DHT22;42052;41.634;-0.946;2022-10-31T14:47:35;24.70;54.60
56172;DHT22;42052;41.634;-0.946;2022-10-31T14:53:03;24.60;54.60
56172;DHT22;42052;41.634;-0.946;2022-10-31T14:55:30;24.60;54.60
56172;DHT22;42052;41.634;-0.946;2022-10-31T14:58:02;24.60;54.60
56172;DHT22;42052;41.634;-0.946;2022-10-31T15:00:31;24.70;54.70
56172;DHT22;42052;41.634;-0.946;2022-10-31T15:03:18;24.60;54.60
56172;DHT22;42052;41.634;-0.946;2022-10-31T15:05:50;24.70;54.60
56172;DHT22;42052;41.634;-0.946;2022-10-31T15:11:09;24.70;55.30
56172;DHT22;42052;41.634;-0.946;2022-10-31T15:13:43;24.60;54.60
56172;DHT22;42052;41.634;-0.946;2022-10-31T15:16:10;24.60;54.60
56172;DHT22;42052;41.634;-0.946;2022-10-31T15:18:44;24.60;54.50
56172;DHT22;42052;41.634;-0.946;2022-10-31T15:21:15;24.70;54.50
56172;DHT22;42052;41.634;-0.946;2022-10-31T15:23:42;24.60;54.50
56172;DHT22;42052;41.634;-0.946;2022-10-31T15:26:17;24.70;54.60
56172;DHT22;42052;41.634;-0.946;2022-10-31T15:28:45;24.60;54.50
56172;DHT22;42052;41.634;-0.946;2022-10-31T15:31:17;24.70;54.50
56172;DHT22;42052;41.634;-0.946;2022-10-31T15:33:47;24.70;54.60
56172;DHT22;42052;41.634;-0.946;2022-10-31T15:36:21;24.70;54.60
56172;DHT22;42052;41.634;-0.946;2022-10-31T15:38:47;24.70;54.60
56172;DHT22;42052;41.634;-0.946;2022-10-31T15:43:59;24.70;55.30
56172;DHT22;42052;41.634;-0.946;2022-10-31T15:46:27;24.70;54.60
56172;DHT22;42052;41.634;-0.946;2022-10-31T15:48:53;24.70;54.60
56172;DHT22;42052;41.634;-0.946;2022-10-31T15:51:29;24.70;54.60
56172;DHT22;42052;41.634;-0.946;2022-10-31T15:53:56;24.70;55.30
56172;DHT22;42052;41.634;-0.946;2022-10-31T15:56:27;24.60;54.50
56172;DHT22;42052;41.634;-0.946;2022-10-31T15:58:55;24.60;54.50
56172;DHT22;42052;41.634;-0.946;2022-10-31T16:01:32;24.70;54.50
56172;DHT22;42052;41.634;-0.946;2022-10-31T16:06:31;24.70;54.60
56172;DHT22;42052;41.634;-0.946;2022-10-31T16:08:58;24.70;54.50
56172;DHT22;42052;41.634;-0.946;2022-10-31T16:11:35;24.60;54.50
56172;DHT22;42052;41.634;-0.946;2022-10-31T16:14:06;24.70;54.50
56172;DHT22;42052;41.634;-0.946;2022-10-31T16:16:50;24.70;54.60
56172;DHT22;42052;41.634;-0.946;2022-10-31T16:19:22;24.70;54.50
56172;DHT22;42052;41.634;-0.946;2022-10-31T16:21:53;24.60;54.50
56172;DHT22;42052;41.634;-0.946;2022-10-31T16:24:28;24.60;54.50
56172;DHT22;42052;41.634;-0.946;2022-10-31T16:27:01;24.60;54.50
56172;DHT22;42052;41.634;-0.946;2022-10-31T16:29:42;24.60;54.50
56172;DHT22;42052;41.634;-0.946;2022-10-31T16:35:18;24.70;54.50
56172;DHT22;42052;41.634;-0.946;2022-10-31T16:37:47;24.70;54.60
56172;DHT22;42052;41.634;-0.946;2022-10-31T16:40:14;24.60;54.50
56172;DHT22;42052;41.634;-0.946;2022-10-31T16:42:41;24.60;54.50
56172;DHT22;42052;41.634;-0.946;2022-10-31T16:45:13;24.60;54.50
56172;DHT22;42052;41.634;-0.946;2022-10-31T16:47:39;24.60;54.50
56172;DHT22;42052;41.634;-0.946;2022-10-31T16:50:12;24.70;54.60
56172;DHT22;42052;41.634;-0.946;2022-10-31T16:52:39;24.60;54.50
56172;DHT22;42052;41.634;-0.946;2022-10-31T16:55:05;24.70;54.60
56172;DHT22;42052;41.634;-0.946;2022-10-31T16:57:31;24.70;54.50
56172;DHT22;42052;41.634;-0.946;2022-10-31T16:59:57;24.70;54.50
56172;DHT22;42052;41.634;-0.946;2022-10-31T17:02:23;24.70;54.50
56172;DHT22;42052;41.634;-0.946;2022-10-31T17:04:49;24.70;54.50
56172;DHT22;42052;41.634;-0.946;2022-10-31T17:07:15;24.70;54.50
56172;DHT22;42052;41.634;-0.946;2022-10-31T17:09:41;24.60;54.50
56172;DHT22;42052;41.634;-0.946;2022-10-31T17:12:13;24.60;54.50
56172;DHT22;42052;41.634;-0.946;2022-10-31T17:14:41;24.70;54.50
56172;DHT22;42052;41.634;-0.946;2022-10-31T17:17:07;24.70;54.50
56172;DHT22;42052;41.634;-0.946;2022-10-31T17:19:33;24.70;54.50
56172;DHT22;42052;41.634;-0.946;2022-10-31T17:22:01;24.70;54.50
56172;DHT22;42052;41.634;-0.946;2022-10-31T17:24:27;24.60;54.50
56172;DHT22;42052;41.634;-0.946;2022-10-31T17:26:53;24.60;54.40
56172;DHT22;42052;41.634;-0.946;2022-10-31T17:29:18;24.70;54.40
56172;DHT22;42052;41.634;-0.946;2022-10-31T17:31:44;24.70;54.50
56172;DHT22;42052;41.634;-0.946;2022-10-31T17:34:10;24.70;54.50
56172;DHT22;42052;41.634;-0.946;2022-10-31T17:36:36;24.60;54.40
56172;DHT22;42052;41.634;-0.946;2022-10-31T17:39:03;24.60;54.50
56172;DHT22;42052;41.634;-0.946;2022-10-31T17:41:31;24.60;54.50
56172;DHT22;42052;41.634;-0.946;2022-10-31T17:43:58;24.70;54.50
56172;DHT22;42052;41.634;-0.946;2022-10-31T17:46:25;24.70;54.70
56172;DHT22;42052;41.634;-0.946;2022-10-31T17:48:51;24.70;54.60
56172;DHT22;42052;41.634;-0.946;2022-10-31T17:51:17;24.60;54.60
56172;DHT22;42052;41.634;-0.946;2022-10-31T17:53:43;24.70;54.70
56172;DHT22;42052;41.634;-0.946;2022-10-31T17:56:09;24.70;54.70